Latest Coastal Weather Observations for Edithburgh

IDS60701

Issued at 7:11 am CDT Monday 30 March 2015 (issued every 10 minutes, with the page automatically refreshed every 10 minutes)

About coastal observations | Map of coastal stations | Coastal observations for SA | Marine services | Other Formats
Station Details ID: 022046 Name: EDITHBURGH Lat: -35.11 Lon: 137.74 Height: 6.0 m
Data from the previous 72 hours. | See also: Recent months at Edithburgh
Date/Time
CDT
Temp

°C
Wind Pressure Rain
since 9am
mm
Weather Cloud Vis
km
Sea
Height
m
Swell
Dir
 
Speed
knots
Gust
knots
hPa Trend Height
m
Period
s
Dir
30/07:00am 15.3 SSE 4 5 1023.7 - 0.0 - - - - - - -
30/06:30am 15.6 SE 2 3 1023.4 - 0.0 - - - - - - -
30/06:00am 15.8 SSE 4 5 1023.2 - 0.0 - - - - - - -
30/05:30am 16.0 SSE 4 6 1023.0 - 0.0 - - - - - - -
30/05:00am 14.9 SSE 5 6 1022.8 - 0.0 - - - - - - -
30/04:30am 15.4 SSE 3 4 1022.9 - 0.0 - - - - - - -
30/04:00am 15.5 SE 2 3 1022.8 - 0.0 - - - - - - -
30/03:30am 15.5 SSE 4 5 1022.8 - 0.0 - - - - - - -
30/03:00am 16.4 SSE 4 5 1023.0 - 0.0 - - - - - - -
30/02:30am 15.4 S 4 5 1023.3 - 0.0 - - - - - - -
30/02:00am 16.7 S 3 5 1023.5 - 0.0 - - - - - - -
30/01:30am 16.9 S 4 5 1023.6 - 0.0 - - - - - - -
30/01:00am 16.8 S 4 7 1023.6 - 0.0 - - - - - - -
30/12:30am 17.3 S 5 7 1023.6 - 0.0 - - - - - - -
30/12:00am 17.2 SSW 7 8 1023.8 - 0.0 - - - - - - -
 
Date/Time
CDT
Temp

°C
Wind Pressure Rain
since 9am
mm
Weather Cloud Vis
km
Sea
Height
m
Swell
Dir
 
Speed
knots
Gust
knots
hPa Trend Height
m
Period
s
Dir
29/11:30pm 17.0 SSW 6 7 1024.0 - 0.0 - - - - - - -
29/11:00pm 16.9 SSW 5 6 1024.0 - 0.0 - - - - - - -
29/10:30pm 16.0 SW 5 6 1024.0 - 0.0 - - - - - - -
29/10:00pm 15.8 SW 4 5 1023.8 - 0.0 - - - - - - -
29/09:30pm 16.0 SW 4 5 1023.6 - 0.0 - - - - - - -
29/09:00pm 15.8 WSW 3 4 1023.3 - 0.0 - - - - - - -
29/08:30pm 16.5 WSW 3 3 1023.1 - 0.0 - - - - - - -
29/08:00pm 16.7 SW 4 5 1022.8 - 0.0 - - - - - - -
29/07:30pm 18.4 S 2 2 1022.5 - 0.0 - - - - - - -
29/07:00pm 19.2 S 2 3 1022.3 - 0.0 - - - - - - -
29/06:30pm 19.7 S 4 6 1022.1 - 0.0 - - - - - - -
29/06:00pm 20.2 SSW 4 7 1021.9 - 0.0 - - - - - - -
29/05:30pm 20.6 SSW 5 9 1021.8 - 0.0 - - - - - - -
29/05:00pm 21.4 S 7 9 1021.6 - 0.0 - - - - - - -
29/04:30pm 20.9 S 5 7 1021.6 - 0.0 - - - - - - -
29/04:00pm 20.9 SE 7 10 1021.5 - 0.0 - - - - - - -
29/03:30pm 22.1 SE 5 8 1021.6 - 0.0 - - - - - - -
29/03:00pm 21.3 SE 4 6 1021.9 - 0.0 - - - - - - -
29/02:30pm 20.7 SE 3 6 1022.1 - 0.0 - - - - - - -
29/02:00pm 20.7 ESE 6 8 1022.3 - 0.0 - - - - - - -
29/01:30pm 21.9 SE 7 9 1022.4 - 0.0 - - - - - - -
29/01:00pm 21.9 ESE 7 10 1022.6 - 0.0 - - - - - - -
29/12:30pm 22.0 SE 7 9 1022.7 - 0.0 - - - - - - -
29/12:00pm 21.1 SE 5 7 1022.8 - 0.0 - - - - - - -
29/11:30am 21.3 E 4 7 1022.8 - 0.0 - - - - - - -
29/11:00am 21.1 ENE 5 7 1022.8 - 0.0 - - - - - - -
29/10:30am 20.7 NE 2 4 1023.0 - 0.0 - - - - - - -
29/10:00am 19.8 NE 2 3 1023.1 - 0.0 - - - - - - -
29/09:30am 19.3 NNW 2 3 1022.9 - 0.0 - - - - - - -
29/09:00am 17.8 NW 1 2 1022.5 - 0.0 - - - - - - -
29/08:30am 16.0 NW 3 5 1022.4 - 0.0 - - - - - - -
29/08:00am 14.7 W 3 3 1022.2 - 0.0 - - - - - - -
29/07:30am 13.8 WNW 2 3 1021.9 - 0.0 - - - - - - -
29/07:00am 13.7 NNW 3 4 1021.5 - 0.0 - - - - - - -
29/06:30am 12.5 NNW 2 3 1021.1 - 0.0 - - - - - - -
29/06:00am 12.0 NNW 4 5 1021.0 - 0.0 - - - - - - -
29/05:30am 13.4 N 4 5 1020.6 - 0.0 - - - - - - -
29/05:00am 13.1 NW 3 4 1020.6 - 0.0 - - - - - - -
29/04:30am 14.0 NW 1 3 1020.5 - 0.0 - - - - - - -
29/04:00am 13.8 NW 3 4 1020.6 - 0.0 - - - - - - -
29/03:30am 13.1 NNW 4 4 1020.4 - 0.0 - - - - - - -
29/03:00am 12.8 NNW 4 5 1020.6 - 0.0 - - - - - - -
29/02:30am 12.6 NW 3 4 1020.9 - 0.0 - - - - - - -
29/02:00am 12.3 NW 4 4 1021.1 - 0.0 - - - - - - -
29/01:30am 12.2 WNW 4 5 1021.3 - 0.0 - - - - - - -
29/01:00am 11.8 WNW 4 5 1021.4 - 0.0 - - - - - - -
29/12:30am 11.2 NW 5 7 1021.7 - 0.0 - - - - - - -
29/12:00am 11.5 NNW 5 5 1021.5 - 0.0 - - - - - - -
 
Date/Time
CDT
Temp

°C
Wind Pressure Rain
since 9am
mm
Weather Cloud Vis
km
Sea
Height
m
Swell
Dir
 
Speed
knots
Gust
knots
hPa Trend Height
m
Period
s
Dir
28/11:30pm 11.6 NNW 3 3 1021.5 - 0.0 - - - - - - -
28/11:00pm 12.4 NNW 4 5 1021.5 - 0.0 - - - - - - -
28/10:30pm 13.0 NNW 2 4 1021.7 - 0.0 - - - - - - -
28/10:00pm 13.7 NNW 4 4 1022.0 - 0.0 - - - - - - -
28/09:30pm 13.8 NW 2 3 1021.9 - 0.0 - - - - - - -
28/09:00pm 14.6 NNW 3 4 1021.7 - 0.0 - - - - - - -
28/08:30pm 17.0 ENE 3 4 1021.4 - 0.0 - - - - - - -
28/08:00pm 16.6 ESE 3 4 1021.2 - 0.0 - - - - - - -
28/07:30pm 16.9 E 4 5 1021.2 - 0.0 - - - - - - -
28/07:00pm 18.2 ESE 3 4 1020.9 - 0.0 - - - - - - -
28/06:30pm 18.5 ESE 4 5 1020.8 - 0.0 - - - - - - -
28/06:00pm 19.0 E 5 5 1020.8 - 0.0 - - - - - - -
28/05:30pm 18.8 E 5 7 1020.7 - 0.0 - - - - - - -
28/05:00pm 19.0 E 7 9 1020.7 - 0.0 - - - - - - -
28/04:30pm 19.6 ENE 7 10 1021.0 - 0.0 - - - - - - -
28/04:00pm 19.3 ENE 7 9 1021.3 - 0.0 - - - - - - -
28/03:30pm 19.3 ENE 9 10 1021.6 - 0.0 - - - - - - -
28/03:00pm 19.0 ENE 8 10 1021.9 - 0.0 - - - - - - -
28/02:30pm 19.0 ENE 9 12 1022.3 - 0.0 - - - - - - -
28/02:00pm 18.6 ENE 9 11 1022.8 - 0.0 - - - - - - -
28/01:30pm 18.9 ENE 9 12 1023.1 - 0.0 - - - - - - -
28/01:00pm 18.7 NE 9 11 1023.6 - 0.0 - - - - - - -
28/12:30pm 18.1 NE 8 12 1024.2 - 0.0 - - - - - - -
28/12:00pm 18.6 NE 8 12 1024.5 - 0.0 - - - - - - -
28/11:30am 18.1 NE 8 11 1024.7 - 0.0 - - - - - - -
28/11:00am 18.4 NE 8 11 1025.0 - 0.0 - - - - - - -
28/10:30am 18.0 NNE 7 11 1025.3 - 0.0 - - - - - - -
28/10:00am 17.4 NNE 7 11 1025.3 - 0.0 - - - - - - -
28/09:30am 16.9 NNE 7 11 1025.4 - 0.0 - - - - - - -
28/09:00am 16.2 NNE 6 9 1025.4 - 0.0 - - - - - - -
28/08:30am 16.2 ENE 7 9 1025.1 - 0.0 - - - - - - -
28/08:00am 15.7 E 8 10 1024.7 - 0.0 - - - - - - -
28/07:30am 15.3 ENE 8 11 1024.6 - 0.0 - - - - - - -
28/07:00am 15.2 E 9 13 1024.5 - 0.0 - - - - - - -
28/06:30am 15.1 E 7 9 1024.8 - 0.0 - - - - - - -
28/06:00am 13.8 E 4 5 1024.9 - 0.0 - - - - - - -
28/05:30am 13.9 ENE 3 4 1024.9 - 0.0 - - - - - - -
28/05:00am 13.9 E 4 5 1025.1 - 0.0 - - - - - - -
28/04:30am 14.5 E 7 8 1025.1 - 0.0 - - - - - - -
28/04:00am 15.4 E 6 8 1025.4 - 0.0 - - - - - - -
28/03:30am 15.9 ESE 3 5 1025.2 - 0.0 - - - - - - -
28/03:00am 16.0 ESE 4 5 1025.5 - 0.0 - - - - - - -
28/02:30am 15.9 SE 4 5 1025.6 - 0.0 - - - - - - -
28/02:00am 15.9 ESE 6 7 1025.9 - 0.0 - - - - - - -
28/01:30am 15.6 ESE 4 5 1026.4 - 0.0 - - - - - - -
28/01:00am 15.7 SE 4 5 1026.6 - 0.0 - - - - - - -
28/12:30am 15.1 ESE 6 8 1026.4 - 0.0 - - - - - - -
28/12:00am 15.2 SE 7 9 1026.5 - 0.0 - - - - - - -
 
Date/Time
CDT
Temp

°C
Wind Pressure Rain
since 9am
mm
Weather Cloud Vis
km
Sea
Height
m
Swell
Dir
 
Speed
knots
Gust
knots
hPa Trend Height
m
Period
s
Dir
27/11:30pm 15.1 SE 9 11 1026.7 - 0.0 - - - - - - -
27/11:00pm 15.2 SE 10 13 1026.8 - 0.0 - - - - - - -
27/10:30pm 15.2 SSE 9 13 1027.1 - 0.0 - - - - - - -
27/10:00pm 15.7 SSE 12 15 1027.2 - 0.0 - - - - - - -
27/09:30pm 15.6 S 7 11 1027.2 - 0.0 - - - - - - -
27/09:00pm 15.4 S 7 9 1027.2 - 0.0 - - - - - - -
27/08:30pm 15.7 S 8 11 1026.9 - 0.0 - - - - - - -
27/08:00pm 14.9 S 7 11 1026.8 - 0.0 - - - - - - -
27/07:30pm 15.2 SSE 10 13 1026.7 - 0.0 - - - - - - -
27/07:00pm 16.1 S 8 11 1026.7 - 0.0 - - - - - - -
27/06:30pm 16.5 S 6 8 1026.6 - 0.0 - - - - - - -
27/06:00pm 17.0 S 7 10 1026.6 - 0.0 - - - - - - -
27/05:30pm 17.1 S 7 10 1026.6 - 0.0 - - - - - - -
27/05:00pm 17.5 SSE 8 12 1026.6 - 0.0 - - - - - - -
27/04:30pm 17.6 S 9 11 1026.7 - 0.0 - - - - - - -
27/04:00pm 17.4 SSE 8 12 1026.7 - 0.0 - - - - - - -
27/03:30pm 17.9 S 8 12 1026.9 - 0.0 - - - - - - -
27/03:00pm 18.1 SSW 8 12 1027.1 - 0.0 - - - - - - -
27/02:30pm 17.7 S 8 11 1027.5 - 0.0 - - - - - - -
27/02:00pm 18.3 SSW 7 11 1027.9 - 0.0 - - - - - - -
27/01:30pm 17.6 S 7 11 1028.3 - 0.0 - - - - - - -
27/01:00pm 18.0 S 7 11 1028.7 - 0.0 - - - - - - -
27/12:30pm 17.2 S 7 11 1029.2 - 0.0 - - - - - - -
27/12:00pm 17.5 S 7 10 1029.4 - 0.0 - - - - - - -
27/11:30am 16.1 SSW 5 8 1029.7 - 0.0 - - - - - - -
27/11:00am 15.3 SSW 7 12 1030.0 - 0.0 - - - - - - -
27/10:30am 16.8 SSW 7 11 1029.8 - 0.0 - - - - - - -
27/10:00am 16.6 SW 6 9 1029.9 - 0.0 - - - - - - -
27/09:30am 16.1 SSW 6 9 1029.8 - 0.0 - - - - - - -
27/09:00am 15.6 SSW 5 7 1029.6 - 0.0 - - - - - - -
27/08:30am 14.8 SSW 7 9 1029.5 - 0.0 - - - - - - -
27/08:00am 14.6 S 9 14 1029.2 - 0.0 - - - - - - -
27/07:30am 14.3 SSW 9 13 1028.7 - 0.0 - - - - - - -

Other Formats:

Comma delimited format used in spreadsheet applications
http://www.bom.gov.au/fwo/IDS60701/IDS60701.94809.axf

JavaScript Object Notation format (JSON) in row-major order
http://www.bom.gov.au/fwo/IDS60701/IDS60701.94809.json